createdAt,value
2024-04-30T00:01:30.033Z,1021.1134708856612
2024-04-30T00:04:51.652Z,1021.1081935562132
2024-04-30T00:08:12.294Z,1021.0796983835179
2024-04-30T00:11:33.438Z,1021.0946835334903
2024-04-30T00:14:54.169Z,1021.0938773757109
2024-04-30T00:18:14.594Z,1021.0761471809474
2024-04-30T00:21:35.213Z,1021.0802726491673
2024-04-30T00:24:55.175Z,1021.0848202857045
2024-04-30T00:29:29.750Z,1021.0769494182075
2024-04-30T00:32:49.809Z,1021.0759345240689
2024-04-30T00:36:09.661Z,1021.0451886604592
2024-04-30T00:39:29.938Z,1021.0472339850652
2024-04-30T00:42:50.505Z,1021.0610636162803
2024-04-30T00:46:11.230Z,1021.0021615078668
2024-04-30T00:49:32.278Z,1020.9479586905675
2024-04-30T00:52:52.314Z,1020.9233864865372
2024-04-30T00:56:12.191Z,1020.9043342425838
2024-04-30T00:59:33.063Z,1020.8910204839466
2024-04-30T01:02:54.172Z,1020.9174657815819
2024-04-30T01:06:31.482Z,1020.9566372122434
2024-04-30T01:12:52.182Z,1020.8994958237766
2024-04-30T01:16:11.452Z,1020.8655487766617
2024-04-30T01:19:31.378Z,1020.8371540083741
2024-04-30T01:22:51.768Z,1020.8144760089037
2024-04-30T01:26:11.410Z,1020.7949718415811
2024-04-30T01:29:32.329Z,1020.7863593263118
2024-04-30T01:37:08.988Z,1020.7224487394302
2024-04-30T01:40:29.640Z,1020.7053288112132
2024-04-30T01:43:51.080Z,1020.7002455116552
2024-04-30T01:49:32.400Z,1020.662547850645
2024-04-30T01:52:53.074Z,1020.7165846512947
2024-04-30T01:57:15.321Z,1020.7004560219536
2024-04-30T02:00:35.509Z,1020.6881517142832
2024-04-30T02:03:56.051Z,1020.6555339781067
2024-04-30T02:07:16.621Z,1020.6409899532914
2024-04-30T02:10:37.119Z,1020.6011363485046
2024-04-30T02:13:57.141Z,1020.5784738890677
2024-04-30T02:17:17.877Z,1020.5866870954976
2024-04-30T02:23:59.020Z,1020.5256526808064
2024-04-30T02:27:18.944Z,1020.5211275185001
2024-04-30T02:30:39.836Z,1020.5086530139082
2024-04-30T02:34:00.453Z,1020.514901711692
2024-04-30T02:37:20.841Z,1020.5272701957854
2024-04-30T02:40:40.860Z,1020.5212140156401
2024-04-30T02:44:00.813Z,1020.4945481344737
2024-04-30T02:47:20.817Z,1020.5078318744299
2024-04-30T02:50:41.129Z,1020.5561358529528
2024-04-30T02:54:00.905Z,1020.5627590835504
2024-04-30T02:57:21.978Z,1020.5516007051008
2024-04-30T03:09:49.298Z,1020.4123447963198
2024-04-30T03:14:33.720Z,1020.3789700449895
2024-04-30T03:17:53.904Z,1020.403275037669
2024-04-30T03:21:13.556Z,1020.3967356167241
2024-04-30T03:24:34.398Z,1020.4199956428212
2024-04-30T03:27:53.969Z,1020.3991527208453
2024-04-30T03:32:50.802Z,1020.3950883403318
2024-04-30T03:36:10.913Z,1020.3545957955586
2024-04-30T03:39:51.224Z,1020.3142915776722
2024-04-30T03:43:10.802Z,1020.2759205002197
2024-04-30T03:48:45.653Z,1020.2008794987396
2024-04-30T03:52:05.603Z,1020.1648375594118
2024-04-30T03:56:41.881Z,1020.170531222025
2024-04-30T04:00:01.674Z,1020.1833778499511
2024-04-30T04:03:21.606Z,1020.1948010426356
2024-04-30T04:07:59.010Z,1020.1639552650354
2024-04-30T04:11:18.390Z,1020.1786805849879
2024-04-30T04:14:38.122Z,1020.1595068033013
2024-04-30T04:17:58.369Z,1020.1397488826543
2024-04-30T04:21:19.929Z,1020.114576052005
2024-04-30T04:24:41.068Z,1020.0861956308127
2024-04-30T04:29:47.063Z,1020.0978467342768
2024-04-30T04:33:07.382Z,1020.0868451796414
2024-04-30T04:36:27.985Z,1020.0899224133032
2024-04-30T04:47:52.653Z,1020.0627989679606
2024-04-30T04:51:12.567Z,1020.0597278474554
2024-04-30T04:54:32.618Z,1020.0710741113014
2024-04-30T05:00:59.608Z,1020.0528685383431
2024-04-30T05:04:20.134Z,1020.0618035082173
2024-04-30T05:07:40.687Z,1020.0369560024211
2024-04-30T05:11:00.724Z,1020.0379120805455
2024-04-30T05:14:20.537Z,1020.0457758491116
2024-04-30T05:17:40.874Z,1020.0243974306907
2024-04-30T05:21:01.141Z,1020.0164057620557
2024-04-30T05:24:21.425Z,1020.0455003046114
2024-04-30T05:27:42.215Z,1020.0567078298554
2024-04-30T05:31:02.263Z,1020.042689723415
2024-04-30T05:37:57.261Z,1019.9853295050384
2024-04-30T05:41:16.819Z,1019.9571434106628
2024-04-30T05:44:37.372Z,1019.9706528997252
2024-04-30T05:47:57.364Z,1020.017040401762
2024-04-30T05:51:17.613Z,1020.019408915623
2024-04-30T05:54:38.282Z,1019.9897506867333
2024-04-30T05:57:58.264Z,1019.932681737698
2024-04-30T06:01:18.203Z,1019.8758501216212
2024-04-30T06:04:38.567Z,1019.8590430754472
2024-04-30T06:07:58.648Z,1019.8583477615609
2024-04-30T06:11:18.240Z,1019.8785431424534
2024-04-30T06:14:38.586Z,1019.887621754448
2024-04-30T06:19:28.107Z,1019.9301319285915
2024-04-30T06:22:48.445Z,1019.9681653397286
2024-04-30T06:26:08.513Z,1019.9737629432676
2024-04-30T06:29:28.906Z,1019.923501775675
2024-04-30T06:32:48.493Z,1019.8888231641561
2024-04-30T06:38:09.766Z,1019.8813980282769
2024-04-30T06:41:29.924Z,1019.854399640726
2024-04-30T06:44:49.291Z,1019.8258388850791
2024-04-30T06:48:09.191Z,1019.8141420268025
2024-04-30T06:51:29.815Z,1019.7629868974977
2024-04-30T06:54:49.778Z,1019.7413415765603
2024-04-30T06:58:10.257Z,1019.6780147615768
2024-04-30T07:01:46.730Z,1019.6219732694553
2024-04-30T07:05:06.926Z,1019.5935528784474
2024-04-30T07:08:27.374Z,1019.5457811997151
2024-04-30T07:11:46.818Z,1019.4926798808273
2024-04-30T07:15:06.243Z,1019.4332385737157
2024-04-30T07:18:26.665Z,1019.3653572270395
2024-04-30T07:21:46.560Z,1019.3279417566582
2024-04-30T07:25:08.239Z,1019.338548668373
2024-04-30T07:28:29.054Z,1019.3270812541966
2024-04-30T07:34:40.098Z,1019.2913742916814
2024-04-30T07:37:59.960Z,1019.2668654972036
2024-04-30T07:42:56.942Z,1019.2859159032972
2024-04-30T07:47:59.225Z,1019.2138060035511
2024-04-30T07:55:36.099Z,1019.0769689801053
2024-04-30T07:58:56.759Z,1019.0526774128217
2024-04-30T08:14:23.679Z,1018.8865376878568
2024-04-30T08:17:43.896Z,1018.8478890582846
2024-04-30T08:21:04.195Z,1018.8399707640368
2024-04-30T08:24:24.357Z,1018.8195222042231
2024-04-30T08:27:45.563Z,1018.8034057945898
2024-04-30T08:31:06.758Z,1018.781541500877
2024-04-30T08:34:27.363Z,1018.7715111502863
2024-04-30T08:37:54.388Z,1018.7911176083016
2024-04-30T08:41:18.710Z,1018.8153758672765
2024-04-30T08:44:39.317Z,1018.8511054944465
2024-04-30T08:47:59.279Z,1018.8756759472454
2024-04-30T08:51:19.723Z,1018.9025443892599
2024-04-30T08:54:40.823Z,1018.8641092370552
2024-04-30T08:58:00.689Z,1018.8601847187393
2024-04-30T09:01:31.288Z,1018.837595355849
2024-04-30T09:04:51.401Z,1018.8229251489681
2024-04-30T09:08:11.503Z,1018.7790213798844
2024-04-30T09:11:31.693Z,1018.7479150096995
2024-04-30T09:15:41.684Z,1018.7452907336823
2024-04-30T09:19:01.512Z,1018.7308485124918
2024-04-30T09:22:21.510Z,1018.6908280908018
2024-04-30T09:25:41.472Z,1018.6872394211812
2024-04-30T09:29:01.742Z,1018.6467558381974
2024-04-30T09:32:22.493Z,1018.5678512227379
2024-04-30T09:35:44.101Z,1018.5289608221415
2024-04-30T09:39:58.712Z,1018.4602899445514
2024-04-30T09:45:50.307Z,1018.4367088941963
2024-04-30T09:49:09.931Z,1018.3910319268716
2024-04-30T09:52:29.795Z,1018.3237033681629
2024-04-30T09:55:49.374Z,1018.2882243490378
2024-04-30T09:59:09.664Z,1018.2924222134354
2024-04-30T10:02:30.428Z,1018.3020065967888
2024-04-30T10:05:50.211Z,1018.2869941946576
2024-04-30T10:09:10.252Z,1018.2464257173709
2024-04-30T10:12:31.544Z,1018.219221583162
2024-04-30T10:15:51.942Z,1018.2210805761982
2024-04-30T10:19:11.168Z,1018.1962053916451
2024-04-30T10:22:32.223Z,1018.1247981486009
2024-04-30T10:25:52.230Z,1018.0326675547482
2024-04-30T10:29:12.181Z,1017.9357161703558
2024-04-30T10:33:16.360Z,1017.8507667893386
2024-04-30T10:36:37.158Z,1017.8132237870562
2024-04-30T10:39:56.352Z,1017.7871066183034
2024-04-30T10:45:19.319Z,1017.6629269064035
2024-04-30T10:48:39.387Z,1017.6130413120263
2024-04-30T10:51:59.544Z,1017.5752271753529
2024-04-30T10:55:19.767Z,1017.5240727549576
2024-04-30T10:58:40.308Z,1017.4829366470071
2024-04-30T11:02:00.243Z,1017.4580812673098
2024-04-30T11:05:20.430Z,1017.4294832903058
2024-04-30T11:08:41.016Z,1017.4017441872147
2024-04-30T11:13:25.160Z,1017.3225414170403
2024-04-30T11:16:44.940Z,1017.2625582566902
2024-04-30T11:20:05.282Z,1017.2939596592832
2024-04-30T11:23:25.643Z,1017.2605095256134
2024-04-30T11:26:49.899Z,1017.2228474995991
2024-04-30T11:38:41.718Z,1017.0106255508958
2024-04-30T11:42:13.793Z,1016.9626610116932
2024-04-30T11:45:41.647Z,1016.9902912302299
2024-04-30T11:51:22.103Z,1016.9766736918101
2024-04-30T11:54:42.458Z,1016.9689136433619
2024-04-30T11:58:02.860Z,1016.9321998293547
2024-04-30T12:01:23.051Z,1016.8857431723601
2024-04-30T12:04:43.637Z,1016.7918796369362
2024-04-30T12:08:04.161Z,1016.7080698476263
2024-04-30T12:11:24.608Z,1016.6269316632307
2024-04-30T12:14:44.907Z,1016.5397718447705
2024-04-30T12:18:05.258Z,1016.4602705255915
2024-04-30T12:21:25.501Z,1016.4265058796753
2024-04-30T12:28:42.312Z,1016.3712186636862
2024-04-30T12:32:03.550Z,1016.3400175750555
2024-04-30T12:35:23.907Z,1016.3598773860444
2024-04-30T12:38:44.433Z,1016.3527431552421
2024-04-30T12:42:04.210Z,1016.3776831396497
2024-04-30T12:52:58.353Z,1016.313558327691
2024-04-30T12:56:18.061Z,1016.306058191641
2024-04-30T12:59:37.580Z,1016.2582715856706
2024-04-30T13:06:47.499Z,1016.1487120971741
2024-04-30T13:10:25.787Z,1016.1061346973752
2024-04-30T13:16:01.847Z,1016.0723545126917
2024-04-30T13:19:22.144Z,1016.0138738867166
2024-04-30T13:22:42.793Z,1015.9964065590849
2024-04-30T13:26:03.493Z,1015.9313622616081
2024-04-30T13:35:38.294Z,1015.7457259351676
2024-04-30T13:38:57.432Z,1015.7230421011809
2024-04-30T13:42:17.435Z,1015.6944223449105
2024-04-30T13:45:37.582Z,1015.6459921032667
2024-04-30T13:48:57.491Z,1015.6343084714929
2024-04-30T13:52:17.150Z,1015.5789597499737
2024-04-30T13:57:09.585Z,1015.4341489237555
2024-04-30T14:00:30.656Z,1015.428454563975
2024-04-30T14:03:50.272Z,1015.3590363085639
2024-04-30T14:07:10.181Z,1015.2895418350497
2024-04-30T14:10:30.158Z,1015.2451048811574
2024-04-30T14:13:49.707Z,1015.1541442796713
2024-04-30T14:21:24.670Z,1015.0579801955416
2024-04-30T14:24:44.931Z,1015.0157213313356
2024-04-30T14:28:04.926Z,1015.0218353155624
2024-04-30T14:31:25.523Z,1015.0064108462327
2024-04-30T14:38:01.286Z,1014.9566771071896
2024-04-30T14:41:21.351Z,1014.9282158777577
2024-04-30T14:44:41.105Z,1014.9109423264518
2024-04-30T14:48:01.202Z,1014.8432207740999
2024-04-30T14:51:21.181Z,1014.8280005366503
2024-04-30T14:54:41.822Z,1014.8070589587871
2024-04-30T15:05:22.242Z,1014.838732836972
2024-04-30T15:08:42.692Z,1014.8291071552901
2024-04-30T15:12:02.665Z,1014.8272698815932
2024-04-30T15:17:44.519Z,1014.7538965491898
2024-04-30T15:21:04.648Z,1014.6955809764576
2024-04-30T15:24:24.835Z,1014.7001290092812
2024-04-30T15:27:45.167Z,1014.6952722871986
2024-04-30T15:31:05.739Z,1014.6565029180655
2024-04-30T15:34:26.699Z,1014.5914805810958
2024-04-30T15:37:46.636Z,1014.538401095733
2024-04-30T15:41:07.911Z,1014.5031806466147
2024-04-30T15:44:28.036Z,1014.4799098375498
2024-04-30T15:47:48.024Z,1014.4581313477503
2024-04-30T15:55:53.647Z,1014.4401665220188
2024-04-30T16:09:15.675Z,1014.2986655353204
2024-04-30T16:13:14.224Z,1014.2843511236734
2024-04-30T16:18:40.129Z,1014.2646317763771
2024-04-30T16:26:15.640Z,1014.2815486685507
2024-04-30T16:29:35.986Z,1014.2773351046416
2024-04-30T16:32:55.972Z,1014.2848916507481
2024-04-30T16:36:15.927Z,1014.2898543260684
2024-04-30T16:39:36.336Z,1014.2966515195219
2024-04-30T16:42:56.273Z,1014.3071100169765
2024-04-30T16:46:16.450Z,1014.2872114294262
2024-04-30T16:49:37.811Z,1014.2284656413398
2024-04-30T16:52:57.952Z,1014.1869663258117
2024-04-30T16:56:17.923Z,1014.1627382227716
2024-04-30T16:59:37.949Z,1014.1250124640804
2024-04-30T17:02:58.024Z,1014.0975774392888
2024-04-30T17:06:18.299Z,1014.0823349315017
2024-04-30T17:09:50.478Z,1014.0236532832658
2024-04-30T17:13:09.762Z,1013.9864313972724
2024-04-30T17:16:29.718Z,1013.930475935319
2024-04-30T17:19:49.469Z,1013.8529486101701
2024-04-30T17:23:09.024Z,1013.8352503445569
2024-04-30T17:26:29.825Z,1013.8259690484263
2024-04-30T17:38:22.357Z,1013.8697924257589
2024-04-30T17:50:13.988Z,1013.9298453647347
2024-04-30T17:53:34.469Z,1013.9240628302518
2024-04-30T17:56:54.141Z,1013.9467774153378
2024-04-30T18:00:13.959Z,1013.9927571744163
2024-04-30T18:03:33.978Z,1014.011178530105
2024-04-30T18:08:00.377Z,1014.0377244525464
2024-04-30T18:15:41.087Z,1014.0513007651152
2024-04-30T18:19:01.153Z,1014.0608459203743
2024-04-30T18:33:37.767Z,1014.0659530804401
2024-04-30T18:36:59.644Z,1014.0854418002114
2024-04-30T18:40:24.918Z,1014.1035231561058
2024-04-30T18:43:49.863Z,1014.1142316010738
2024-04-30T18:47:12.850Z,1014.1271377773979
2024-04-30T18:51:41.088Z,1014.1514802611817
2024-04-30T18:55:04.985Z,1014.1773252084174
2024-04-30T18:58:30.518Z,1014.2208137225151
2024-04-30T19:01:54.282Z,1014.248783790974
2024-04-30T19:05:19.072Z,1014.2593887636746
2024-04-30T19:08:42.287Z,1014.2674613648628
2024-04-30T19:12:06.416Z,1014.2883966425383
2024-04-30T19:16:58.112Z,1014.2752076577408
2024-04-30T19:20:21.538Z,1014.2988917306443
2024-04-30T19:28:32.742Z,1014.2649334776656
2024-04-30T19:31:56.182Z,1014.2653130038728
2024-04-30T19:35:20.984Z,1014.3136433946395
2024-04-30T19:38:44.431Z,1014.3634975648754
2024-04-30T19:42:08.581Z,1014.3821875489348
2024-04-30T19:45:33.616Z,1014.3685402683027
2024-04-30T19:48:57.566Z,1014.3627670924365
2024-04-30T19:52:20.616Z,1014.3692316588841
2024-04-30T19:57:54.520Z,1014.4011317593428
2024-04-30T20:01:17.960Z,1014.3963598409571
2024-04-30T20:04:38.589Z,1014.3832136505149
2024-04-30T20:07:59.001Z,1014.3860681348917
2024-04-30T20:11:20.347Z,1014.3596839593696
2024-04-30T20:14:41.681Z,1014.3287398034612
2024-04-30T20:18:02.720Z,1014.3279596998067
2024-04-30T20:22:02.951Z,1014.3424477918451
2024-04-30T20:25:23.531Z,1014.3156065161954
2024-04-30T20:28:45.622Z,1014.2894744338638
2024-04-30T20:32:06.734Z,1014.2630228394684
2024-04-30T20:35:27.036Z,1014.2407338272858
2024-04-30T20:38:46.949Z,1014.1928528485337
2024-04-30T20:42:20.071Z,1014.1352233489702
2024-04-30T20:45:49.745Z,1014.0942075453763
2024-04-30T20:49:09.868Z,1014.0738369432513
2024-04-30T20:52:30.730Z,1014.0538415271263
2024-04-30T20:55:50.665Z,1014.0514022060123
2024-04-30T20:59:10.783Z,1014.0332486094653
2024-04-30T21:02:31.448Z,1014.0113655079526
2024-04-30T21:05:51.592Z,1014.023146644845
2024-04-30T21:12:31.295Z,1014.0413997656335
2024-04-30T21:15:50.880Z,1014.0292242443843
2024-04-30T21:19:11.005Z,1014.0166781567299
2024-04-30T21:26:47.756Z,1013.9718386260967
2024-04-30T21:40:02.982Z,1013.9415535672965
2024-04-30T21:43:23.538Z,1013.9147930232093
2024-04-30T21:46:44.242Z,1013.8945021592984
2024-04-30T21:50:04.291Z,1013.8942576794285
2024-04-30T21:53:24.291Z,1013.9001517034786
2024-04-30T21:56:44.515Z,1013.9125895868556
2024-04-30T22:00:05.707Z,1013.9098596380258
2024-04-30T22:05:51.989Z,1013.8764504000208
2024-04-30T22:09:46.017Z,1013.8700127459284
2024-04-30T22:13:05.963Z,1013.8363902982456
2024-04-30T22:16:26.569Z,1013.8287115729228
2024-04-30T22:30:54.857Z,1013.7756177735151
2024-04-30T22:34:16.293Z,1013.7508226715697
2024-04-30T22:37:36.635Z,1013.7049084367828
2024-04-30T22:40:56.600Z,1013.635936523621
2024-04-30T22:44:16.054Z,1013.6071826036792
2024-04-30T22:47:36.407Z,1013.6111126384507
2024-04-30T22:57:00.085Z,1013.6414851456618
2024-04-30T23:00:20.383Z,1013.6087411030943
2024-04-30T23:03:41.402Z,1013.5849549383522
2024-04-30T23:07:01.421Z,1013.5622848305834
2024-04-30T23:10:28.113Z,1013.4878781566091
2024-04-30T23:13:48.178Z,1013.4491054971039
2024-04-30T23:17:07.995Z,1013.4121507745773
2024-04-30T23:20:30.645Z,1013.3891880146745
2024-04-30T23:24:15.584Z,1013.3136285688189
2024-04-30T23:27:36.398Z,1013.2818829521262
2024-04-30T23:30:56.529Z,1013.2392766068599
2024-04-30T23:34:16.801Z,1013.1830645669875
2024-04-30T23:37:37.386Z,1013.1315704795132
2024-04-30T23:40:57.319Z,1013.1171019498842
2024-04-30T23:44:20.775Z,1013.1669961382213
2024-04-30T23:47:41.120Z,1013.1459500027122
2024-04-30T23:51:01.391Z,1013.066586618115
2024-04-30T23:54:21.451Z,1013.0072848130189
2024-04-30T23:57:41.734Z,1012.9751824969547
